createdAt,value
2023-05-18T00:00:13.995Z,10.10
2023-05-18T00:02:41.958Z,12.60
2023-05-18T00:05:12.114Z,10.20
2023-05-18T00:07:40.705Z,11.70
2023-05-18T00:10:08.581Z,9.80
2023-05-18T00:12:37.529Z,12.10
2023-05-18T00:15:04.874Z,12.20
2023-05-18T00:17:31.763Z,13.10
2023-05-18T00:19:59.071Z,10.40
2023-05-18T00:22:26.024Z,23.40
2023-05-18T00:24:54.119Z,11.80
2023-05-18T00:27:20.930Z,10.30
2023-05-18T00:29:47.969Z,10.30
2023-05-18T00:32:14.855Z,10.30
2023-05-18T00:34:41.702Z,10.90
2023-05-18T00:37:08.513Z,10.30
2023-05-18T00:39:35.484Z,13.60
2023-05-18T00:42:03.095Z,9.80
2023-05-18T00:44:30.099Z,8.80
2023-05-18T00:46:57.137Z,7.60
2023-05-18T00:49:23.951Z,8.50
2023-05-18T00:51:50.806Z,10.30
2023-05-18T00:54:18.868Z,13.20
2023-05-18T00:56:46.217Z,9.30
2023-05-18T00:59:13.398Z,11.50
2023-05-18T01:01:43.237Z,8.70
2023-05-18T01:04:13.711Z,8.40
2023-05-18T01:06:42.435Z,6.90
2023-05-18T01:09:11.284Z,13.70
2023-05-18T01:12:12.536Z,11.20
2023-05-18T01:14:50.225Z,8.60
2023-05-18T01:17:42.022Z,9.30
2023-05-18T01:20:15.147Z,15.30
2023-05-18T01:22:50.068Z,10.60
2023-05-18T01:25:36.070Z,9.70
2023-05-18T01:28:09.673Z,12.30
2023-05-18T01:30:39.707Z,7.00
2023-05-18T01:33:08.941Z,9.00
2023-05-18T01:35:36.652Z,10.70
2023-05-18T01:38:04.108Z,10.20
2023-05-18T01:40:33.237Z,7.50
2023-05-18T01:43:03.654Z,8.40
2023-05-18T01:45:30.654Z,6.80
2023-05-18T01:47:59.592Z,12.60
2023-05-18T01:50:31.627Z,11.90
2023-05-18T01:53:05.932Z,11.30
2023-05-18T01:55:34.200Z,12.00
2023-05-18T01:58:01.364Z,8.70
2023-05-18T02:00:28.516Z,9.10
2023-05-18T02:02:55.662Z,11.40
2023-05-18T02:05:23.219Z,9.70
2023-05-18T02:07:50.051Z,13.30
2023-05-18T02:10:17.422Z,13.40
2023-05-18T02:12:48.585Z,8.00
2023-05-18T02:15:15.609Z,10.50
2023-05-18T02:17:42.969Z,10.50
2023-05-18T02:20:10.728Z,10.80
2023-05-18T02:22:37.892Z,15.50
2023-05-18T02:25:06.766Z,11.10
2023-05-18T02:27:35.471Z,8.20
2023-05-18T02:30:08.217Z,8.90
2023-05-18T02:32:38.590Z,8.60
2023-05-18T02:35:07.736Z,13.00
2023-05-18T02:37:39.956Z,11.50
2023-05-18T02:40:12.091Z,15.20
2023-05-18T02:42:40.250Z,15.20
2023-05-18T02:45:07.749Z,9.30
2023-05-18T02:47:34.882Z,12.40
2023-05-18T02:50:02.440Z,14.20
2023-05-18T02:52:30.372Z,21.20
2023-05-18T02:54:57.468Z,11.10
2023-05-18T02:57:36.859Z,10.30
2023-05-18T03:00:11.216Z,8.50
2023-05-18T03:02:39.592Z,12.70
2023-05-18T03:05:07.570Z,13.50
2023-05-18T03:07:34.691Z,22.80
2023-05-18T03:10:07.149Z,11.40
2023-05-18T03:12:34.463Z,13.90
2023-05-18T03:15:01.269Z,16.00
2023-05-18T03:17:29.838Z,9.70
2023-05-18T03:19:56.801Z,11.00
2023-05-18T03:22:23.610Z,16.70
2023-05-18T03:24:51.134Z,14.90
2023-05-18T03:27:22.742Z,10.80
2023-05-18T03:29:50.196Z,9.40
2023-05-18T03:32:17.139Z,12.90
2023-05-18T03:34:47.001Z,8.40
2023-05-18T03:37:15.327Z,11.20
2023-05-18T03:39:42.338Z,11.10
2023-05-18T03:42:09.221Z,11.80
2023-05-18T03:44:36.266Z,11.00
2023-05-18T03:47:03.622Z,8.30
2023-05-18T03:49:33.525Z,12.90
2023-05-18T03:52:01.917Z,9.30
2023-05-18T03:54:30.292Z,9.70
2023-05-18T03:56:57.243Z,8.00
2023-05-18T03:59:24.082Z,11.30
2023-05-18T04:01:53.181Z,13.70
2023-05-18T04:04:22.573Z,12.20
2023-05-18T04:06:50.930Z,15.30
2023-05-18T04:11:45.452Z,9.90
2023-05-18T04:14:13.631Z,11.20
2023-05-18T04:16:40.965Z,9.90
2023-05-18T04:19:08.487Z,14.30
2023-05-18T04:21:36.822Z,12.00
2023-05-18T04:24:04.709Z,10.70
2023-05-18T04:26:38.237Z,11.10
2023-05-18T04:29:07.277Z,13.80
2023-05-18T04:31:35.318Z,19.10
2023-05-18T04:34:02.288Z,17.30
2023-05-18T04:36:34.561Z,16.80
2023-05-18T04:39:07.275Z,17.40
2023-05-18T04:41:34.798Z,20.60
2023-05-18T04:44:03.073Z,20.30
2023-05-18T04:48:57.471Z,16.10
2023-05-18T04:51:24.290Z,14.50
2023-05-18T04:53:52.602Z,21.70
2023-05-18T04:56:22.626Z,14.20
2023-05-18T04:58:49.767Z,20.80
2023-05-18T05:01:17.923Z,20.10
2023-05-18T05:03:45.192Z,21.00
2023-05-18T05:06:12.330Z,29.80
2023-05-18T05:08:39.506Z,16.50
2023-05-18T05:11:06.659Z,13.10
2023-05-18T05:13:35.508Z,26.30
2023-05-18T05:18:30.339Z,37.10
2023-05-18T05:20:58.801Z,29.40
2023-05-18T05:23:26.832Z,24.10
2023-05-18T05:25:54.339Z,45.60
2023-05-18T05:28:21.283Z,15.60
2023-05-18T05:30:48.554Z,42.30
2023-05-18T05:33:16.838Z,17.60
2023-05-18T05:38:11.209Z,12.30
2023-05-18T05:40:38.403Z,11.00
2023-05-18T05:43:05.712Z,10.00
2023-05-18T05:45:33.534Z,10.10
2023-05-18T05:48:03.155Z,10.20
2023-05-18T05:53:01.010Z,14.60
2023-05-18T05:55:31.215Z,7.20
2023-05-18T05:57:58.214Z,13.60
2023-05-18T06:00:27.022Z,7.30
2023-05-18T06:02:59.047Z,8.60
2023-05-18T06:05:35.241Z,8.70
2023-05-18T06:08:04.236Z,8.30
2023-05-18T06:10:32.311Z,6.60
2023-05-18T06:12:59.978Z,18.40
2023-05-18T06:15:38.636Z,6.60
2023-05-18T06:18:05.579Z,12.70
2023-05-18T06:23:00.422Z,12.50
2023-05-18T06:25:38.760Z,10.50
2023-05-18T06:31:18.192Z,9.60
2023-05-18T06:33:49.171Z,7.00
2023-05-18T06:36:16.492Z,5.50
2023-05-18T06:38:44.565Z,13.60
2023-05-18T06:41:11.333Z,8.80
2023-05-18T06:43:40.790Z,7.30
2023-05-18T06:46:30.734Z,3.00
2023-05-18T06:49:00.825Z,5.60
2023-05-18T06:51:27.947Z,10.70
2023-05-18T06:53:56.965Z,8.80
2023-05-18T06:56:24.026Z,5.70
2023-05-18T06:58:51.765Z,6.30
2023-05-18T07:01:18.847Z,11.20
2023-05-18T07:03:46.104Z,2.50
2023-05-18T07:06:14.600Z,4.60
2023-05-18T07:08:41.533Z,4.90
2023-05-18T07:11:09.242Z,4.70
2023-05-18T07:13:36.220Z,7.30
2023-05-18T07:16:03.185Z,14.70
2023-05-18T07:18:30.390Z,12.50
2023-05-18T07:20:57.133Z,4.30
2023-05-18T07:23:24.332Z,4.90
2023-05-18T07:25:51.251Z,2.50
2023-05-18T07:28:18.386Z,3.40
2023-05-18T07:30:45.469Z,2.60
2023-05-18T07:33:12.641Z,10.10
2023-05-18T07:35:39.733Z,7.10
2023-05-18T07:38:06.865Z,9.90
2023-05-18T07:40:33.826Z,6.90
2023-05-18T07:43:00.671Z,5.70
2023-05-18T07:45:27.628Z,6.60
2023-05-18T07:47:54.600Z,2.10
2023-05-18T07:50:21.795Z,5.90
2023-05-18T07:52:48.741Z,7.30
2023-05-18T07:55:15.991Z,3.60
2023-05-18T07:57:42.948Z,3.20
2023-05-18T08:00:10.916Z,2.50
2023-05-18T08:02:42.590Z,3.70
2023-05-18T08:05:10.575Z,3.60
2023-05-18T08:07:37.781Z,4.00
2023-05-18T08:10:05.589Z,4.60
2023-05-18T08:12:32.943Z,7.10
2023-05-18T08:15:00.102Z,5.50
2023-05-18T08:17:27.090Z,11.80
2023-05-18T08:19:54.163Z,7.40
2023-05-18T08:22:21.118Z,5.90
2023-05-18T08:24:48.078Z,11.20
2023-05-18T08:27:15.394Z,8.00
2023-05-18T08:29:42.230Z,5.00
2023-05-18T08:32:09.267Z,3.00
2023-05-18T08:34:36.211Z,3.70
2023-05-18T08:37:03.486Z,6.30
2023-05-18T08:39:31.979Z,3.70
2023-05-18T08:42:03.414Z,7.50
2023-05-18T08:44:38.119Z,4.80
2023-05-18T08:47:08.770Z,2.70
2023-05-18T08:49:35.575Z,5.30
2023-05-18T08:52:15.652Z,4.40
2023-05-18T08:54:42.589Z,8.00
2023-05-18T08:57:12.370Z,5.00
2023-05-18T08:59:42.823Z,8.60
2023-05-18T09:02:10.138Z,7.50
2023-05-18T09:04:37.325Z,4.70
2023-05-18T09:07:05.985Z,5.20
2023-05-18T09:09:33.028Z,4.70
2023-05-18T09:11:59.988Z,4.20
2023-05-18T09:14:27.122Z,4.30
2023-05-18T09:16:54.319Z,7.60
2023-05-18T09:19:21.750Z,5.90
2023-05-18T09:24:16.018Z,7.50
2023-05-18T09:26:42.994Z,4.50
2023-05-18T09:29:17.636Z,3.50
2023-05-18T09:31:46.566Z,2.80
2023-05-18T09:34:14.605Z,4.50
2023-05-18T09:36:42.742Z,6.00
2023-05-18T09:39:11.535Z,5.30
2023-05-18T09:41:40.109Z,2.70
2023-05-18T09:44:09.809Z,3.80
2023-05-18T09:46:37.739Z,5.60
2023-05-18T09:49:05.918Z,5.70
2023-05-18T09:51:36.862Z,4.00
2023-05-18T09:54:06.992Z,8.10
2023-05-18T09:56:36.976Z,4.60
2023-05-18T09:59:14.448Z,12.00
2023-05-18T10:01:57.116Z,5.70
2023-05-18T10:04:26.613Z,10.80
2023-05-18T10:06:53.692Z,7.80
2023-05-18T10:09:20.668Z,4.00
2023-05-18T10:11:48.448Z,6.10
2023-05-18T10:14:15.397Z,9.60
2023-05-18T10:16:42.861Z,6.40
2023-05-18T10:21:36.840Z,3.00
2023-05-18T10:24:04.757Z,5.40
2023-05-18T10:26:31.755Z,2.10
2023-05-18T10:28:58.831Z,2.00
2023-05-18T10:31:26.035Z,25.10
2023-05-18T10:33:53.181Z,11.00
2023-05-18T10:36:20.242Z,3.80
2023-05-18T10:38:47.297Z,7.30
2023-05-18T10:41:14.296Z,4.20
2023-05-18T10:43:41.589Z,6.60
2023-05-18T10:46:08.760Z,16.50
2023-05-18T10:48:38.606Z,2.40
2023-05-18T10:51:07.183Z,3.50
2023-05-18T10:53:34.392Z,5.60
2023-05-18T10:56:01.913Z,5.60
2023-05-18T10:58:29.978Z,12.40
2023-05-18T11:01:01.375Z,5.70
2023-05-18T11:03:28.840Z,8.50
2023-05-18T11:08:49.869Z,5.40
2023-05-18T11:11:19.214Z,3.70
2023-05-18T11:13:50.291Z,3.30
2023-05-18T11:16:19.915Z,3.60
2023-05-18T11:18:51.979Z,5.20
2023-05-18T11:21:25.277Z,3.90
2023-05-18T11:24:14.910Z,4.90
2023-05-18T11:26:42.832Z,4.30
2023-05-18T11:29:36.865Z,4.40
2023-05-18T11:32:05.287Z,15.90
2023-05-18T11:34:46.393Z,5.10
2023-05-18T11:37:17.296Z,3.40
2023-05-18T11:40:00.198Z,7.60
2023-05-18T11:42:33.028Z,3.80
2023-05-18T11:45:06.762Z,3.60
2023-05-18T11:47:33.819Z,6.00
2023-05-18T11:50:01.003Z,7.30
2023-05-18T11:52:28.013Z,5.70
2023-05-18T11:55:00.062Z,6.10
2023-05-18T11:57:39.577Z,2.80
2023-05-18T12:00:13.687Z,7.50
2023-05-18T12:02:47.781Z,5.00
2023-05-18T12:05:15.397Z,2.40
2023-05-18T12:07:42.515Z,5.40
2023-05-18T12:10:12.829Z,3.30
2023-05-18T12:12:40.188Z,6.20
2023-05-18T12:15:08.728Z,6.10
2023-05-18T12:17:45.785Z,5.40
2023-05-18T12:20:20.823Z,13.10
2023-05-18T12:22:53.959Z,3.30
2023-05-18T12:25:23.449Z,4.50
2023-05-18T12:27:51.824Z,5.20
2023-05-18T12:30:20.446Z,4.10
2023-05-18T12:32:51.464Z,5.80
2023-05-18T12:35:25.405Z,3.80
2023-05-18T12:37:52.489Z,4.00
2023-05-18T12:40:20.130Z,4.90
2023-05-18T12:43:00.338Z,5.50
2023-05-18T12:45:28.602Z,7.20
2023-05-18T12:47:56.365Z,10.20
2023-05-18T12:50:25.792Z,6.40
2023-05-18T12:52:52.822Z,4.10
2023-05-18T12:55:23.484Z,8.40
2023-05-18T12:58:02.150Z,7.60
2023-05-18T13:00:35.540Z,3.00
2023-05-18T13:03:12.582Z,7.40
2023-05-18T13:05:42.663Z,8.30
2023-05-18T13:08:09.624Z,9.20
2023-05-18T13:10:36.648Z,4.50
2023-05-18T13:13:04.033Z,7.20
2023-05-18T13:18:04.003Z,4.70
2023-05-18T13:20:41.613Z,4.90
2023-05-18T13:23:10.489Z,6.10
2023-05-18T13:25:37.786Z,4.20
2023-05-18T13:28:04.973Z,5.80
2023-05-18T13:30:32.583Z,3.90
2023-05-18T13:33:00.343Z,4.90
2023-05-18T13:37:54.330Z,7.30
2023-05-18T13:40:22.366Z,6.60
2023-05-18T13:42:49.331Z,3.70
2023-05-18T13:45:16.500Z,7.20
2023-05-18T13:47:45.863Z,11.40
2023-05-18T13:50:13.094Z,8.40
2023-05-18T13:52:40.237Z,9.80
2023-05-18T13:55:08.201Z,7.00
2023-05-18T13:57:36.182Z,5.40
2023-05-18T14:00:06.922Z,7.00
2023-05-18T14:02:39.572Z,4.20
2023-05-18T14:05:08.821Z,10.60
2023-05-18T14:07:36.992Z,4.10
2023-05-18T14:10:05.170Z,5.50
2023-05-18T14:12:32.553Z,6.20
2023-05-18T14:14:59.935Z,6.10
2023-05-18T14:17:30.277Z,8.50
2023-05-18T14:19:57.758Z,11.10
2023-05-18T14:22:26.381Z,17.70
2023-05-18T14:24:54.033Z,6.70
2023-05-18T14:27:21.011Z,8.40
2023-05-18T14:29:48.498Z,5.80
2023-05-18T14:34:42.717Z,7.80
2023-05-18T14:37:09.756Z,6.80
2023-05-18T14:39:37.878Z,10.10
2023-05-18T14:42:06.330Z,3.90
2023-05-18T14:44:33.334Z,10.10
2023-05-18T14:47:00.490Z,5.50
2023-05-18T14:49:28.158Z,9.10
2023-05-18T14:51:55.200Z,7.30
2023-05-18T14:54:22.961Z,5.00
2023-05-18T14:56:50.028Z,14.90
2023-05-18T14:59:17.060Z,6.00
2023-05-18T15:01:44.005Z,12.20
2023-05-18T15:04:11.081Z,22.00
2023-05-18T15:06:38.287Z,7.40
2023-05-18T15:09:06.477Z,9.20
2023-05-18T15:11:33.609Z,39.50
2023-05-18T15:14:03.018Z,7.60
2023-05-18T15:16:31.184Z,11.60
2023-05-18T15:18:58.284Z,11.20
2023-05-18T15:21:25.858Z,9.10
2023-05-18T15:23:53.836Z,11.90
2023-05-18T15:26:21.418Z,15.20
2023-05-18T15:28:49.359Z,9.00
2023-05-18T15:31:16.420Z,8.80
2023-05-18T15:33:45.106Z,8.00
2023-05-18T15:36:12.037Z,10.20
2023-05-18T15:38:39.066Z,15.40
2023-05-18T15:41:06.167Z,5.40
2023-05-18T15:43:33.764Z,12.00
2023-05-18T15:46:00.760Z,9.60
2023-05-18T15:48:30.031Z,11.00
2023-05-18T15:50:57.031Z,6.60
2023-05-18T15:53:24.142Z,7.30
2023-05-18T15:55:57.813Z,10.00
2023-05-18T15:58:26.713Z,7.60
2023-05-18T16:00:54.029Z,11.80
2023-05-18T16:03:21.502Z,8.20
2023-05-18T16:05:48.649Z,11.60
2023-05-18T16:08:18.430Z,7.00
2023-05-18T16:10:45.428Z,7.30
2023-05-18T16:13:12.440Z,25.30
2023-05-18T16:15:39.510Z,9.50
2023-05-18T16:18:06.542Z,12.50
2023-05-18T16:20:33.782Z,22.60
2023-05-18T16:23:01.063Z,13.00
2023-05-18T16:25:29.152Z,6.90
2023-05-18T16:27:56.530Z,11.90
2023-05-18T16:30:23.537Z,9.60
2023-05-18T16:32:50.630Z,9.70
2023-05-18T16:35:17.641Z,17.20
2023-05-18T16:37:45.268Z,12.20
2023-05-18T16:40:13.144Z,11.80
2023-05-18T16:42:40.193Z,14.30
2023-05-18T16:45:07.423Z,9.30
2023-05-18T16:47:34.508Z,17.30
2023-05-18T16:50:01.614Z,19.70
2023-05-18T16:52:28.841Z,15.80
2023-05-18T16:54:55.866Z,17.20
2023-05-18T16:57:25.393Z,20.30
2023-05-18T16:59:54.335Z,15.50
2023-05-18T17:02:21.716Z,11.50
2023-05-18T17:04:50.136Z,13.20
2023-05-18T17:07:17.296Z,15.10
2023-05-18T17:09:44.429Z,12.20
2023-05-18T17:12:12.229Z,8.00
2023-05-18T17:14:39.343Z,14.60
2023-05-18T17:17:07.088Z,13.00
2023-05-18T17:19:39.072Z,12.70
2023-05-18T17:22:06.372Z,17.50
2023-05-18T17:24:33.324Z,13.20
2023-05-18T17:27:00.344Z,11.30
2023-05-18T17:29:27.593Z,13.70
2023-05-18T17:31:55.182Z,13.20
2023-05-18T17:34:22.770Z,18.90
2023-05-18T17:36:49.966Z,15.40
2023-05-18T17:39:17.018Z,17.20
2023-05-18T17:41:44.441Z,10.50
2023-05-18T17:44:14.318Z,14.30
2023-05-18T17:46:42.087Z,14.40
2023-05-18T17:49:09.360Z,13.20
2023-05-18T17:51:36.696Z,11.10
2023-05-18T17:54:04.300Z,11.70
2023-05-18T17:56:32.169Z,17.20
2023-05-18T17:58:59.799Z,13.10
2023-05-18T18:01:30.313Z,11.70
2023-05-18T18:03:57.472Z,11.60
2023-05-18T18:06:24.972Z,16.60
2023-05-18T18:08:53.931Z,13.00
2023-05-18T18:11:24.507Z,8.90
2023-05-18T18:13:51.714Z,15.20
2023-05-18T18:16:18.776Z,9.90
2023-05-18T18:18:45.977Z,12.30
2023-05-18T18:21:13.021Z,16.40
2023-05-18T18:23:40.585Z,15.80
2023-05-18T18:26:08.077Z,13.10
2023-05-18T18:28:35.260Z,15.10
2023-05-18T18:31:03.351Z,16.00
2023-05-18T18:35:57.721Z,27.90
2023-05-18T18:38:27.060Z,19.70
2023-05-18T18:40:59.939Z,16.90
2023-05-18T18:43:28.133Z,18.30
2023-05-18T18:45:57.282Z,21.30
2023-05-18T18:48:25.085Z,19.50
2023-05-18T18:50:52.805Z,26.40
2023-05-18T18:53:19.838Z,14.00
2023-05-18T18:55:47.215Z,15.60
2023-05-18T18:58:16.226Z,20.40
2023-05-18T19:00:44.142Z,15.00
2023-05-18T19:03:11.263Z,20.90
2023-05-18T19:05:38.375Z,17.60
2023-05-18T19:08:05.671Z,15.30
2023-05-18T19:10:34.407Z,14.60
2023-05-18T19:13:05.934Z,15.50
2023-05-18T19:15:34.898Z,22.60
2023-05-18T19:18:02.392Z,24.90
2023-05-18T19:20:29.584Z,28.90
2023-05-18T19:22:56.657Z,31.80
2023-05-18T19:25:26.491Z,31.40
2023-05-18T19:27:55.417Z,35.50
2023-05-18T19:30:22.580Z,37.10
2023-05-18T19:32:50.208Z,36.80
2023-05-18T19:35:19.800Z,49.90
2023-05-18T19:37:47.654Z,62.10
2023-05-18T19:40:14.772Z,56.80
2023-05-18T19:42:41.983Z,67.10
2023-05-18T19:45:09.228Z,64.40
2023-05-18T19:47:36.857Z,71.70
2023-05-18T19:50:04.750Z,74.10
2023-05-18T19:52:33.821Z,60.90
2023-05-18T19:55:02.465Z,68.30
2023-05-18T19:57:29.919Z,79.90
2023-05-18T19:59:58.050Z,79.90
2023-05-18T20:02:25.696Z,75.70
2023-05-18T20:04:53.871Z,84.30
2023-05-18T20:07:22.787Z,82.50
2023-05-18T20:09:55.196Z,81.20
2023-05-18T20:12:22.278Z,126.50
2023-05-18T20:14:49.433Z,99.00
2023-05-18T20:17:17.034Z,100.60
2023-05-18T20:19:49.985Z,63.50
2023-05-18T20:22:17.646Z,62.10
2023-05-18T20:24:44.781Z,70.20
2023-05-18T20:27:16.539Z,74.70
2023-05-18T20:29:43.598Z,77.80
2023-05-18T20:32:10.870Z,62.20
2023-05-18T20:34:37.873Z,67.90
2023-05-18T20:37:05.735Z,68.40
2023-05-18T20:39:33.007Z,76.90
2023-05-18T20:42:00.165Z,80.50
2023-05-18T20:44:28.958Z,68.50
2023-05-18T20:49:25.105Z,64.40
2023-05-18T20:51:52.090Z,70.30
2023-05-18T20:54:20.982Z,66.70
2023-05-18T20:56:48.036Z,59.80
2023-05-18T20:59:18.276Z,61.70
2023-05-18T21:01:45.381Z,60.60
2023-05-18T21:04:13.292Z,67.50
2023-05-18T21:06:41.085Z,67.10
2023-05-18T21:09:08.468Z,61.20
2023-05-18T21:11:35.977Z,66.80
2023-05-18T21:14:03.159Z,73.30
2023-05-18T21:16:30.180Z,93.80
2023-05-18T21:18:57.389Z,111.00
2023-05-18T21:21:24.564Z,107.40
2023-05-18T21:23:51.634Z,125.60
2023-05-18T21:26:18.783Z,121.00
2023-05-18T21:28:45.776Z,127.90
2023-05-18T21:31:12.957Z,132.20
2023-05-18T21:33:40.150Z,135.30
2023-05-18T21:36:10.158Z,119.30
2023-05-18T21:38:37.425Z,128.60
2023-05-18T21:41:04.490Z,115.00
2023-05-18T21:43:31.614Z,114.50
2023-05-18T21:45:58.817Z,103.40
2023-05-18T21:48:25.841Z,134.20
2023-05-18T21:50:52.863Z,117.70
2023-05-18T21:53:19.806Z,113.50
2023-05-18T21:55:46.933Z,120.70
2023-05-18T21:58:13.861Z,100.90
2023-05-18T22:00:40.811Z,103.70
2023-05-18T22:03:07.825Z,74.10
2023-05-18T22:05:35.086Z,74.70
2023-05-18T22:08:02.001Z,71.30
2023-05-18T22:10:31.384Z,63.10
2023-05-18T22:12:59.399Z,56.10
2023-05-18T22:15:26.365Z,62.50
2023-05-18T22:17:54.575Z,64.00
2023-05-18T22:20:21.705Z,41.50
2023-05-18T22:22:48.719Z,45.30
2023-05-18T22:25:18.267Z,45.00
2023-05-18T22:27:45.918Z,60.50
2023-05-18T22:30:14.250Z,43.20
2023-05-18T22:32:41.329Z,48.50
2023-05-18T22:35:09.649Z,51.40
2023-05-18T22:40:06.469Z,49.00
2023-05-18T22:42:33.805Z,54.90
2023-05-18T22:45:00.915Z,63.20
2023-05-18T22:47:28.409Z,82.50
2023-05-18T22:49:55.581Z,91.50
2023-05-18T22:52:22.926Z,97.00
2023-05-18T22:54:50.060Z,121.20
2023-05-18T22:57:17.043Z,122.30
2023-05-18T22:59:44.003Z,130.60
2023-05-18T23:02:11.168Z,128.90
2023-05-18T23:04:38.392Z,118.10
2023-05-18T23:07:05.555Z,113.40
2023-05-18T23:09:32.933Z,107.90
2023-05-18T23:12:01.449Z,92.10
2023-05-18T23:17:01.784Z,104.30
2023-05-18T23:19:28.962Z,87.90
2023-05-18T23:21:56.126Z,120.80
2023-05-18T23:24:23.102Z,125.70
2023-05-18T23:26:50.080Z,107.40
2023-05-18T23:29:17.057Z,101.00
2023-05-18T23:31:44.115Z,109.10
2023-05-18T23:34:11.378Z,102.40
2023-05-18T23:36:38.977Z,109.80
2023-05-18T23:39:07.471Z,98.70
2023-05-18T23:41:34.458Z,90.80
2023-05-18T23:44:02.078Z,92.10
2023-05-18T23:46:30.017Z,89.30
2023-05-18T23:48:59.975Z,88.10
2023-05-18T23:51:29.987Z,103.60
2023-05-18T23:53:57.061Z,84.80
2023-05-18T23:56:25.038Z,64.90
2023-05-18T23:58:52.289Z,76.40
